Time;durP1;ratioP1;P1;durP2;ratioP2;P2;SDS_P1;SDS_P2;PMS_P1;PMS_P2;Temp;Humidity;BMP_temperature;BMP_pressure;BME280_temperature;BME280_humidity;BME280_pressure;Samples;Min_cycle;Max_cycle;Signal;HPM_P1;HPM_P2
2023/10/02 00:00:41;;;;;;;8.23;3.88;;;;;;;;;;5014938;28;20046;-74
2023/10/02 00:03:09;;;;;;;7.28;3.38;;;;;;;;;;5014066;28;20148;-73
2023/10/02 00:05:50;;;;;;;7.55;4.28;;;;;;;;;;5014440;28;20057;-73
2023/10/02 00:08:31;;;;;;;8.75;3.80;;;;;;;;;;5014522;28;20411;-74
2023/10/02 00:11:05;;;;;;;7.93;3.80;;;;;;;;;;5014702;28;20060;-73
2023/10/02 00:13:32;;;;;;;8.05;3.65;;;;;;;;;;5014417;28;20057;-73
2023/10/02 00:15:59;;;;;;;8.13;3.38;;;;;;;;;;5014520;28;20057;-73
2023/10/02 00:18:27;;;;;;;9.73;4.13;;;;;;;;;;5014108;28;20053;-73
2023/10/02 00:21:17;;;;;;;10.63;5.07;;;;;;;;;;5014512;28;20498;-74
2023/10/02 00:23:59;;;;;;;8.35;3.42;;;;;;;;;;5014037;28;20068;-73
2023/10/02 00:26:26;;;;;;;6.70;3.80;;;;;;;;;;5014316;28;20356;-74
2023/10/02 00:28:53;;;;;;;7.85;3.47;;;;;;;;;;5014161;28;20065;-73
2023/10/02 00:31:35;;;;;;;11.40;4.72;;;;;;;;;;5014097;28;20061;-74
2023/10/02 00:34:02;;;;;;;6.95;3.97;;;;;;;;;;5014057;28;20050;-73
2023/10/02 00:36:30;;;;;;;6.95;4.32;;;;;;;;;;5014283;28;20061;-74
2023/10/02 00:39:24;;;;;;;8.82;4.13;;;;;;;;;;5014154;28;20054;-73
2023/10/02 00:42:10;;;;;;;8.13;4.32;;;;;;;;;;5028050;28;20053;-73
2023/10/02 00:47:15;;;;;;;7.97;3.50;;;;;;;;;;5033697;28;20060;-73
2023/10/02 00:49:41;;;;;;;8.45;3.60;;;;;;;;;;5020251;28;20054;-74
2023/10/02 00:52:08;;;;;;;6.63;3.42;;;;;;;;;;5013845;28;20085;-73
2023/10/02 00:54:37;;;;;;;7.65;4.30;;;;;;;;;;5013763;28;20054;-73
2023/10/02 00:57:16;;;;;;;7.55;3.88;;;;;;;;;;5013820;28;20046;-73
2023/10/02 00:59:44;;;;;;;7.43;4.28;;;;;;;;;;5013349;28;20478;-73
2023/10/02 01:02:17;;;;;;;6.63;3.35;;;;;;;;;;5014279;28;20061;-75
2023/10/02 01:04:44;;;;;;;7.30;3.55;;;;;;;;;;5013977;28;20475;-75
2023/10/02 01:07:15;;;;;;;7.20;3.40;;;;;;;;;;5013816;28;20058;-75
2023/10/02 01:10:06;;;;;;;6.97;4.13;;;;;;;;;;5013842;28;20053;-75
2023/10/02 01:12:38;;;;;;;8.67;3.40;;;;;;;;;;5013376;28;20061;-75
2023/10/02 01:15:11;;;;;;;7.35;3.67;;;;;;;;;;5012628;28;20058;-75
2023/10/02 01:17:39;;;;;;;7.88;3.92;;;;;;;;;;5012999;28;20054;-75
2023/10/02 01:20:12;;;;;;;10.02;4.03;;;;;;;;;;5013446;28;20057;-75
2023/10/02 01:22:42;;;;;;;6.20;3.42;;;;;;;;;;5013227;28;20387;-75
2023/10/02 01:25:14;;;;;;;8.95;3.55;;;;;;;;;;5013269;28;20058;-75
2023/10/02 01:27:47;;;;;;;9.75;5.45;;;;;;;;;;5013259;28;20054;-75
2023/10/02 01:30:16;;;;;;;9.15;4.57;;;;;;;;;;5012324;28;20057;-75
2023/10/02 01:33:11;;;;;;;6.07;3.55;;;;;;;;;;5012276;28;20065;-75
2023/10/02 01:35:39;;;;;;;8.23;3.80;;;;;;;;;;5012439;28;20499;-75
2023/10/02 01:38:12;;;;;;;7.22;3.78;;;;;;;;;;5012647;28;20061;-76
2023/10/02 01:40:42;;;;;;;7.88;3.85;;;;;;;;;;5013094;28;20486;-75
2023/10/02 01:43:15;;;;;;;6.95;3.88;;;;;;;;;;5013042;28;20057;-75
2023/10/02 01:45:43;;;;;;;8.93;4.22;;;;;;;;;;5012869;28;20215;-76
2023/10/02 01:48:12;;;;;;;6.20;3.22;;;;;;;;;;5013223;28;20050;-75
2023/10/02 01:50:39;;;;;;;6.75;3.38;;;;;;;;;;5029326;28;20049;-75
2023/10/02 01:53:06;;;;;;;5.90;3.30;;;;;;;;;;5012929;28;20057;-75
2023/10/02 01:55:35;;;;;;;10.45;3.78;;;;;;;;;;5012514;28;20053;-75
2023/10/02 02:00:52;;;;;;;7.10;4.35;;;;;;;;;;5009589;28;20050;-75
2023/10/02 02:03:20;;;;;;;8.65;3.80;;;;;;;;;;5012443;28;20483;-75
2023/10/02 02:05:49;;;;;;;10.48;4.82;;;;;;;;;;5030587;28;20049;-75
2023/10/02 02:08:25;;;;;;;9.25;3.58;;;;;;;;;;5032489;28;20053;-75
2023/10/02 02:10:53;;;;;;;6.28;3.70;;;;;;;;;;5032394;28;20050;-75
2023/10/02 02:13:22;;;;;;;7.18;4.10;;;;;;;;;;5032475;28;20056;-75
2023/10/02 02:15:51;;;;;;;8.50;3.13;;;;;;;;;;5032688;28;20053;-75
2023/10/02 02:18:20;;;;;;;6.95;3.80;;;;;;;;;;5028607;28;20062;-75
2023/10/02 02:20:58;;;;;;;5.35;3.13;;;;;;;;;;5012698;28;20083;-75
2023/10/02 02:23:26;;;;;;;6.30;2.97;;;;;;;;;;5012579;28;20061;-75
2023/10/02 02:25:53;;;;;;;6.32;3.35;;;;;;;;;;5018583;28;20057;-75
2023/10/02 02:28:21;;;;;;;9.00;3.83;;;;;;;;;;5036089;28;20087;-75
2023/10/02 02:30:48;;;;;;;9.60;4.43;;;;;;;;;;5036246;28;20045;-75
2023/10/02 02:33:15;;;;;;;5.28;3.55;;;;;;;;;;5022613;28;20065;-75
2023/10/02 02:35:44;;;;;;;7.07;3.30;;;;;;;;;;5033487;28;20049;-75
2023/10/02 02:38:14;;;;;;;6.80;4.90;;;;;;;;;;5028285;28;20053;-75
2023/10/02 02:40:42;;;;;;;6.72;3.17;;;;;;;;;;5016013;28;20046;-75
2023/10/02 02:43:19;;;;;;;6.47;3.58;;;;;;;;;;5016304;28;20061;-75
2023/10/02 02:45:47;;;;;;;5.50;3.60;;;;;;;;;;5016086;28;20053;-75
2023/10/02 02:48:15;;;;;;;8.15;3.90;;;;;;;;;;5015750;28;20057;-75
2023/10/02 02:50:42;;;;;;;5.05;2.95;;;;;;;;;;5016044;28;20057;-75
2023/10/02 02:53:23;;;;;;;5.03;3.15;;;;;;;;;;5015848;28;20057;-75
2023/10/02 02:56:14;;;;;;;8.38;3.83;;;;;;;;;;5016008;28;20057;-75
2023/10/02 02:58:44;;;;;;;5.55;2.95;;;;;;;;;;5016049;28;20053;-75
2023/10/02 03:01:11;;;;;;;;;;;;;;;;;;5016322;28;20054;-75
2023/10/02 03:03:41;;;;;;;11.63;3.92;;;;;;;;;;5023658;28;20378;-76
2023/10/02 03:06:17;;;;;;;7.72;3.28;;;;;;;;;;5035446;28;20061;-75
2023/10/02 03:08:44;;;;;;;6.22;4.47;;;;;;;;;;5035596;28;20068;-75
2023/10/02 03:11:11;;;;;;;7.28;3.42;;;;;;;;;;5036047;28;20050;-75
2023/10/02 03:13:39;;;;;;;6.55;3.95;;;;;;;;;;5035522;28;20422;-75
2023/10/02 03:16:12;;;;;;;8.40;3.97;;;;;;;;;;5035530;28;20053;-75
2023/10/02 03:18:43;;;;;;;7.63;4.15;;;;;;;;;;5021856;28;20058;-75
2023/10/02 03:21:15;;;;;;;7.90;3.85;;;;;;;;;;5015796;28;20061;-75
2023/10/02 03:23:43;;;;;;;6.80;3.25;;;;;;;;;;5015801;28;20057;-75
2023/10/02 03:26:26;;;;;;;7.10;3.35;;;;;;;;;;5015652;28;20414;-75
2023/10/02 03:29:00;;;;;;;4.93;3.20;;;;;;;;;;5015314;28;20510;-75
2023/10/02 03:31:34;;;;;;;12.10;4.93;;;;;;;;;;5015332;28;20057;-75
2023/10/02 03:34:24;;;;;;;7.55;3.45;;;;;;;;;;5016553;28;20415;-75
2023/10/02 03:36:50;;;;;;;8.90;4.32;;;;;;;;;;5034345;28;20060;-75
2023/10/02 03:39:51;;;;;;;7.28;4.35;;;;;;;;;;5020226;28;20426;-75
2023/10/02 03:42:12;;;;;;;7.22;3.45;;;;;;;;;;5015038;28;20487;-76
2023/10/02 03:44:39;;;;;;;7.68;3.95;;;;;;;;;;5025597;28;20054;-75
2023/10/02 03:47:06;;;;;;;5.85;3.47;;;;;;;;;;5032135;28;20072;-75
2023/10/02 03:49:35;;;;;;;9.27;3.80;;;;;;;;;;5014350;28;20058;-75
2023/10/02 03:52:02;;;;;;;11.37;4.90;;;;;;;;;;5014834;28;20403;-75
2023/10/02 03:54:29;;;;;;;7.90;4.13;;;;;;;;;;5015210;28;20065;-75
2023/10/02 03:56:56;;;;;;;9.15;3.65;;;;;;;;;;5014925;28;20483;-75
2023/10/02 03:59:26;;;;;;;7.55;2.95;;;;;;;;;;5015251;28;20057;-76
2023/10/02 04:01:53;;;;;;;6.72;3.22;;;;;;;;;;5014844;28;20054;-75
2023/10/02 04:04:19;;;;;;;6.88;3.33;;;;;;;;;;5026593;28;20414;-75
2023/10/02 04:06:47;;;;;;;10.43;4.47;;;;;;;;;;5014138;28;20045;-75
2023/10/02 04:09:21;;;;;;;10.73;4.55;;;;;;;;;;5014744;28;20081;-75
2023/10/02 04:11:50;;;;;;;7.70;3.28;;;;;;;;;;5015081;28;20045;-75
2023/10/02 04:14:23;;;;;;;7.82;3.90;;;;;;;;;;5014450;28;20046;-75
2023/10/02 04:16:51;;;;;;;4.72;3.30;;;;;;;;;;5014306;28;20054;-75
2023/10/02 04:19:23;;;;;;;7.80;3.42;;;;;;;;;;5014179;28;20050;-76
2023/10/02 04:21:53;;;;;;;6.45;3.65;;;;;;;;;;5014678;28;20050;-76
2023/10/02 04:24:23;;;;;;;7.22;4.18;;;;;;;;;;5014525;28;20061;-75
2023/10/02 04:26:54;;;;;;;12.95;4.15;;;;;;;;;;5014367;28;20072;-75
2023/10/02 04:29:26;;;;;;;6.82;4.03;;;;;;;;;;5014111;28;20058;-75
2023/10/02 04:32:11;;;;;;;7.10;3.65;;;;;;;;;;5014487;28;20053;-75
2023/10/02 04:34:38;;;;;;;6.20;3.53;;;;;;;;;;5014204;28;20050;-75
2023/10/02 04:37:19;;;;;;;10.68;4.38;;;;;;;;;;5024194;28;20517;-75
2023/10/02 04:39:53;;;;;;;6.40;4.07;;;;;;;;;;5022116;28;20054;-75
2023/10/02 04:42:22;;;;;;;7.82;3.92;;;;;;;;;;5015694;28;20443;-75
2023/10/02 04:44:56;;;;;;;6.28;3.63;;;;;;;;;;5018929;28;20054;-75
2023/10/02 04:47:26;;;;;;;7.90;2.90;;;;;;;;;;5020665;28;20045;-75
2023/10/02 04:52:55;;;;;;;7.80;2.92;;;;;;;;;;5009202;28;20046;-75
2023/10/02 04:55:24;;;;;;;8.15;4.45;;;;;;;;;;5021116;28;20046;-76
2023/10/02 04:57:52;;;;;;;9.32;3.45;;;;;;;;;;5023458;28;20050;-75
2023/10/02 05:00:27;;;;;;;8.02;3.33;;;;;;;;;;5029828;28;20053;-76
2023/10/02 05:03:09;;;;;;;7.82;4.63;;;;;;;;;;5029816;28;20068;-74
2023/10/02 05:05:41;;;;;;;9.68;4.00;;;;;;;;;;5023924;28;20057;-75
2023/10/02 05:08:18;;;;;;;9.25;4.85;;;;;;;;;;5018224;28;20049;-76
2023/10/02 05:10:47;;;;;;;6.35;3.83;;;;;;;;;;5032224;28;20518;-76
2023/10/02 05:13:13;;;;;;;8.55;4.28;;;;;;;;;;5014437;28;20054;-75
2023/10/02 05:16:06;;;;;;;8.15;3.78;;;;;;;;;;5020712;28;20068;-75
2023/10/02 05:18:29;;;;;;;9.80;4.47;;;;;;;;;;5018769;28;20407;-74
2023/10/02 05:20:56;;;;;;;8.63;4.53;;;;;;;;;;5014315;28;20084;-74
2023/10/02 05:23:23;;;;;;;9.32;4.50;;;;;;;;;;5024017;28;20486;-75
2023/10/02 05:25:50;;;;;;;6.32;3.25;;;;;;;;;;5035405;28;20057;-76
2023/10/02 05:28:17;;;;;;;12.38;4.82;;;;;;;;;;5029402;28;20065;-74
2023/10/02 05:30:43;;;;;;;11.38;4.35;;;;;;;;;;5026050;28;20050;-75
2023/10/02 05:33:15;;;;;;;8.88;3.67;;;;;;;;;;5018032;28;20042;-74
2023/10/02 05:35:45;;;;;;;6.63;3.80;;;;;;;;;;5013787;28;20069;-75
2023/10/02 05:38:16;;;;;;;6.95;3.80;;;;;;;;;;5013850;28;20050;-74
2023/10/02 05:40:47;;;;;;;8.05;3.42;;;;;;;;;;5014796;28;20065;-75
2023/10/02 05:43:18;;;;;;;6.50;4.25;;;;;;;;;;5016335;28;20050;-75
2023/10/02 05:45:47;;;;;;;10.50;4.63;;;;;;;;;;5029452;28;20053;-75
2023/10/02 05:48:14;;;;;;;7.05;3.70;;;;;;;;;;5019703;28;20053;-75
2023/10/02 05:50:47;;;;;;;6.32;3.33;;;;;;;;;;5035510;28;20067;-75
2023/10/02 05:53:14;;;;;;;8.00;3.20;;;;;;;;;;5048551;28;20053;-74
2023/10/02 05:56:04;;;;;;;7.22;4.13;;;;;;;;;;5054910;28;20063;-75
2023/10/02 05:58:33;;;;;;;6.40;3.88;;;;;;;;;;5056031;28;20044;-75
2023/10/02 06:01:03;;;;;;;7.57;4.00;;;;;;;;;;5053946;28;20033;-75
2023/10/02 06:03:34;;;;;;;8.13;4.03;;;;;;;;;;5048984;28;20055;-75
2023/10/02 06:06:18;;;;;;;9.18;4.25;;;;;;;;;;5054354;28;20057;-74
2023/10/02 06:08:49;;;;;;;9.02;3.85;;;;;;;;;;5052499;28;20037;-75
2023/10/02 06:11:31;;;;;;;6.75;3.85;;;;;;;;;;5055568;28;20045;-75
2023/10/02 06:14:09;;;;;;;5.57;3.13;;;;;;;;;;5051025;28;20072;-76
2023/10/02 06:16:38;;;;;;;6.53;3.88;;;;;;;;;;5035220;28;20068;-75
2023/10/02 06:19:06;;;;;;;6.22;2.90;;;;;;;;;;5043230;28;20054;-75
2023/10/02 06:21:40;;;;;;;8.25;3.70;;;;;;;;;;5045159;28;20041;-75
2023/10/02 06:24:09;;;;;;;6.70;3.55;;;;;;;;;;5047205;28;20067;-75
2023/10/02 06:26:49;;;;;;;5.90;2.90;;;;;;;;;;5038985;28;20056;-75
2023/10/02 06:29:22;;;;;;;6.95;2.97;;;;;;;;;;5053039;28;20054;-76
2023/10/02 06:31:51;;;;;;;6.30;3.35;;;;;;;;;;5038669;28;20085;-76
2023/10/02 06:34:18;;;;;;;6.38;4.15;;;;;;;;;;5051956;28;20045;-76
2023/10/02 06:36:48;;;;;;;9.40;4.03;;;;;;;;;;5042614;28;20049;-76
2023/10/02 06:39:17;;;;;;;8.60;3.95;;;;;;;;;;5046851;28;20060;-75
2023/10/02 06:41:45;;;;;;;7.13;3.70;;;;;;;;;;5047921;28;20053;-75
2023/10/02 06:44:20;;;;;;;7.07;3.45;;;;;;;;;;5035984;28;20054;-75
2023/10/02 06:46:55;;;;;;;7.28;3.50;;;;;;;;;;5038062;28;20058;-76
2023/10/02 06:49:23;;;;;;;6.32;3.50;;;;;;;;;;5038982;28;20064;-76
2023/10/02 06:51:51;;;;;;;8.88;4.95;;;;;;;;;;5016830;28;20054;-76
2023/10/02 06:54:19;;;;;;;11.00;3.47;;;;;;;;;;5036612;28;20045;-76
2023/10/02 06:56:46;;;;;;;6.07;3.25;;;;;;;;;;5036396;28;20050;-76
2023/10/02 06:59:13;;;;;;;5.65;2.88;;;;;;;;;;5020729;28;20406;-76
2023/10/02 07:02:01;;;;;;;5.35;2.47;;;;;;;;;;5015404;28;20054;-76
2023/10/02 07:04:30;;;;;;;7.10;3.47;;;;;;;;;;5013287;28;20058;-76
2023/10/02 07:07:02;;;;;;;7.93;4.25;;;;;;;;;;5018859;28;20522;-74
2023/10/02 07:09:33;;;;;;;6.30;3.05;;;;;;;;;;5016620;28;20054;-73
2023/10/02 07:12:08;;;;;;;8.70;4.63;;;;;;;;;;5014262;28;20056;-77
2023/10/02 07:14:36;;;;;;;9.15;3.70;;;;;;;;;;5036049;28;20054;-77
2023/10/02 07:17:12;;;;;;;5.43;3.55;;;;;;;;;;5024683;28;20061;-74
2023/10/02 07:19:46;;;;;;;6.90;3.63;;;;;;;;;;5029863;28;20072;-74
2023/10/02 07:22:16;;;;;;;6.22;4.05;;;;;;;;;;5016586;28;20046;-74
2023/10/02 07:24:45;;;;;;;5.85;4.05;;;;;;;;;;5017684;28;20505;-75
2023/10/02 07:27:23;;;;;;;5.38;3.40;;;;;;;;;;5021152;28;20049;-74
2023/10/02 07:29:52;;;;;;;7.10;3.53;;;;;;;;;;5015222;28;20061;-74
2023/10/02 07:32:19;;;;;;;4.63;3.22;;;;;;;;;;5019347;28;20045;-75
2023/10/02 07:34:47;;;;;;;5.30;2.97;;;;;;;;;;5019729;28;20380;-74
2023/10/02 07:37:16;;;;;;;7.57;3.13;;;;;;;;;;5034179;28;20061;-74
2023/10/02 07:39:43;;;;;;;5.63;3.20;;;;;;;;;;5031658;28;20470;-74
2023/10/02 07:42:11;;;;;;;5.80;3.35;;;;;;;;;;5032526;28;20049;-74
2023/10/02 07:44:38;;;;;;;5.65;3.22;;;;;;;;;;5027584;28;20053;-74
2023/10/02 07:47:10;;;;;;;6.00;3.40;;;;;;;;;;5023023;28;20060;-75
2023/10/02 07:49:38;;;;;;;18.80;4.30;;;;;;;;;;5032000;28;20053;-74
2023/10/02 07:52:08;;;;;;;6.45;3.20;;;;;;;;;;5025816;28;20056;-75
2023/10/02 07:54:44;;;;;;;7.57;3.85;;;;;;;;;;5020362;28;20739;-74
2023/10/02 07:57:13;;;;;;;6.47;3.80;;;;;;;;;;5018930;28;20049;-75
2023/10/02 07:59:40;;;;;;;;;;;;;;;;;;5027221;28;20058;-76
2023/10/02 08:02:21;;;;;;;7.50;3.13;;;;;;;;;;5029532;28;20293;-77
2023/10/02 08:04:48;;;;;;;9.60;5.07;;;;;;;;;;5034195;28;20054;-77
2023/10/02 08:07:17;;;;;;;7.88;4.85;;;;;;;;;;5034303;28;20056;-77
2023/10/02 08:09:47;;;;;;;6.80;3.92;;;;;;;;;;5034333;28;20060;-77
2023/10/02 08:12:29;;;;;;;8.85;4.28;;;;;;;;;;5034248;28;20053;-77
2023/10/02 08:14:58;;;;;;;5.60;3.85;;;;;;;;;;5021922;28;20054;-77
2023/10/02 08:17:59;;;;;;;8.07;4.80;;;;;;;;;;5021415;28;20513;-78
2023/10/02 08:20:20;;;;;;;6.35;3.88;;;;;;;;;;5032624;28;20057;-76
2023/10/02 08:22:51;;;;;;;7.78;3.97;;;;;;;;;;5014354;28;20057;-77
2023/10/02 08:25:23;;;;;;;8.70;4.28;;;;;;;;;;5030608;28;20049;-77
2023/10/02 08:27:55;;;;;;;6.13;3.65;;;;;;;;;;5016124;28;20061;-76
2023/10/02 08:30:28;;;;;;;6.63;3.20;;;;;;;;;;5024594;28;20046;-75
2023/10/02 08:32:56;;;;;;;7.35;4.15;;;;;;;;;;5021798;28;20050;-75
2023/10/02 08:35:24;;;;;;;5.82;3.72;;;;;;;;;;5015610;28;20050;-75
2023/10/02 08:37:54;;;;;;;5.45;3.20;;;;;;;;;;5031390;28;20054;-75
2023/10/02 08:40:22;;;;;;;7.88;3.80;;;;;;;;;;5031528;28;20061;-75
2023/10/02 08:42:52;;;;;;;;;;;;;;;;;;5024519;28;20056;-76
2023/10/02 08:45:20;;;;;;;9.10;4.10;;;;;;;;;;5033590;28;19921;-76
2023/10/02 08:47:47;;;;;;;6.65;4.00;;;;;;;;;;5028927;28;20422;-75
2023/10/02 08:50:15;;;;;;;5.82;3.95;;;;;;;;;;5016806;28;20052;-77
2023/10/02 08:52:47;;;;;;;6.07;4.35;;;;;;;;;;5031794;28;20056;-77
2023/10/02 08:55:33;;;;;;;6.40;3.85;;;;;;;;;;5016301;28;20061;-77
2023/10/02 08:58:15;;;;;;;7.05;4.03;;;;;;;;;;5018289;28;20490;-76
2023/10/02 09:01:01;;;;;;;8.07;4.45;;;;;;;;;;5014787;28;20054;-76
2023/10/02 09:03:28;;;;;;;5.63;3.58;;;;;;;;;;5021338;28;20053;-76
2023/10/02 09:06:24;;;;;;;8.38;3.75;;;;;;;;;;5015329;28;20380;-76
2023/10/02 09:09:13;;;;;;;8.57;4.53;;;;;;;;;;5025502;28;20057;-77
2023/10/02 09:11:35;;;;;;;6.95;4.25;;;;;;;;;;5019546;28;20430;-76
2023/10/02 09:14:12;;;;;;;6.25;4.13;;;;;;;;;;5024525;28;20478;-77
2023/10/02 09:16:39;;;;;;;6.78;3.53;;;;;;;;;;5015800;28;20058;-77
2023/10/02 09:19:28;;;;;;;8.33;3.47;;;;;;;;;;5021655;28;20061;-77
2023/10/02 09:22:06;;;;;;;6.80;4.53;;;;;;;;;;5020154;28;20476;-75
2023/10/02 09:24:34;;;;;;;;;;;;;;;;;;5031842;28;20398;-77
2023/10/02 09:29:45;;;;;;;10.02;5.22;;;;;;;;;;5012825;28;20053;-77
2023/10/02 09:32:21;;;;;;;8.25;5.03;;;;;;;;;;5012747;28;20054;-77
2023/10/02 09:35:08;;;;;;;8.40;4.88;;;;;;;;;;5013135;28;20054;-76
2023/10/02 09:37:36;;;;;;;8.93;4.75;;;;;;;;;;5012814;28;20050;-77
2023/10/02 09:40:14;;;;;;;8.98;4.57;;;;;;;;;;5013239;28;20399;-77
2023/10/02 09:42:45;;;;;;;;;;;;;;;;;;5015451;28;20054;-77
2023/10/02 09:45:30;;;;;;;7.63;4.65;;;;;;;;;;5033234;28;19921;-77
2023/10/02 09:47:59;;;;;;;8.70;4.75;;;;;;;;;;5031089;28;20494;-77
2023/10/02 09:50:29;;;;;;;9.68;5.68;;;;;;;;;;5033216;28;20053;-77
2023/10/02 09:53:00;;;;;;;9.23;5.60;;;;;;;;;;5032785;28;20080;-77
2023/10/02 09:55:42;;;;;;;9.10;5.20;;;;;;;;;;5032227;28;20053;-77
2023/10/02 09:58:26;;;;;;;11.68;6.03;;;;;;;;;;5019976;28;20053;-77
2023/10/02 10:01:22;;;;;;;8.32;4.85;;;;;;;;;;5032070;28;20060;-77
2023/10/02 10:03:49;;;;;;;8.68;4.93;;;;;;;;;;5013920;28;20057;-77
2023/10/02 10:06:17;;;;;;;10.30;5.32;;;;;;;;;;5032903;28;20060;-77
2023/10/02 10:12:17;;;;;;;9.50;4.65;;;;;;;;;;5021145;28;20041;-77
2023/10/02 10:14:39;;;;;;;10.13;5.50;;;;;;;;;;5032618;28;20410;-77
2023/10/02 10:17:13;;;;;;;8.95;5.00;;;;;;;;;;5022919;28;20048;-77
2023/10/02 10:19:41;;;;;;;9.32;4.88;;;;;;;;;;5012137;28;20080;-77
2023/10/02 10:22:26;;;;;;;7.97;3.88;;;;;;;;;;5012807;28;20058;-77
2023/10/02 10:24:56;;;;;;;9.43;5.05;;;;;;;;;;5013073;28;20050;-77
2023/10/02 10:27:41;;;;;;;9.60;4.70;;;;;;;;;;5013086;28;20060;-77
2023/10/02 10:30:24;;;;;;;7.75;4.90;;;;;;;;;;5013237;28;20054;-77
2023/10/02 10:33:15;;;;;;;9.80;5.60;;;;;;;;;;5029302;28;20049;-77
2023/10/02 10:35:48;;;;;;;9.68;5.50;;;;;;;;;;5033051;28;20072;-77
2023/10/02 10:38:41;;;;;;;8.10;4.47;;;;;;;;;;5032320;28;20053;-77
2023/10/02 10:41:09;;;;;;;8.68;4.70;;;;;;;;;;5018027;28;20058;-77
2023/10/02 10:43:55;;;;;;;7.18;4.55;;;;;;;;;;5032659;28;20398;-78
2023/10/02 10:46:24;;;;;;;9.45;5.43;;;;;;;;;;5026100;28;20102;-77
2023/10/02 10:49:07;;;;;;;7.15;4.63;;;;;;;;;;5016414;28;20061;-77
2023/10/02 10:51:36;;;;;;;10.57;5.32;;;;;;;;;;5016584;28;20054;-77
2023/10/02 10:54:12;;;;;;;9.30;4.80;;;;;;;;;;5016171;28;20530;-78
2023/10/02 10:56:43;;;;;;;9.85;5.30;;;;;;;;;;5017120;28;20054;-77
2023/10/02 10:59:12;;;;;;;9.20;5.45;;;;;;;;;;5015870;28;20065;-77
2023/10/02 11:01:41;;;;;;;7.43;4.72;;;;;;;;;;5017853;28;20050;-79
2023/10/02 11:04:13;;;;;;;9.32;5.25;;;;;;;;;;5027448;28;20045;-79
2023/10/02 11:06:43;;;;;;;9.77;4.78;;;;;;;;;;5023065;28;20422;-79
2023/10/02 11:12:12;;;;;;;9.35;4.60;;;;;;;;;;5026753;28;20049;-79
2023/10/02 11:14:52;;;;;;;5.45;3.58;;;;;;;;;;5033498;28;20072;-78
2023/10/02 11:17:32;;;;;;;8.63;4.68;;;;;;;;;;5029008;28;20058;-79
2023/10/02 11:20:07;;;;;;;7.90;4.80;;;;;;;;;;5020903;28;20494;-78
2023/10/02 11:22:49;;;;;;;7.95;4.70;;;;;;;;;;5035210;28;20418;-80
2023/10/02 11:25:20;;;;;;;6.95;4.35;;;;;;;;;;5021524;28;20482;-77
2023/10/02 11:27:56;;;;;;;8.70;5.05;;;;;;;;;;5032741;28;20495;-78
2023/10/02 11:30:31;;;;;;;10.30;5.40;;;;;;;;;;5035334;28;20510;-78
2023/10/02 11:33:00;;;;;;;8.77;4.90;;;;;;;;;;5021267;28;20059;-77
2023/10/02 11:35:28;;;;;;;8.63;4.18;;;;;;;;;;5020414;28;20046;-77
2023/10/02 11:37:55;;;;;;;6.38;3.85;;;;;;;;;;5015429;28;20406;-78
2023/10/02 11:40:28;;;;;;;8.18;3.90;;;;;;;;;;5026312;28;20069;-78
2023/10/02 11:42:59;;;;;;;8.98;4.30;;;;;;;;;;5034313;28;20057;-78
2023/10/02 11:45:26;;;;;;;9.23;4.72;;;;;;;;;;5035237;28;20045;-78
2023/10/02 11:47:53;;;;;;;9.00;4.78;;;;;;;;;;5023719;28;20057;-78
2023/10/02 11:50:20;;;;;;;6.63;4.37;;;;;;;;;;5015476;28;20050;-77
2023/10/02 11:52:47;;;;;;;6.57;4.20;;;;;;;;;;5015102;28;20488;-77
2023/10/02 11:55:17;;;;;;;7.18;3.88;;;;;;;;;;5016368;28;20050;-78
2023/10/02 11:57:49;;;;;;;8.07;4.55;;;;;;;;;;5033554;28;20053;-77
2023/10/02 12:00:16;;;;;;;6.68;3.85;;;;;;;;;;5031151;28;20054;-77
2023/10/02 12:02:46;;;;;;;6.85;4.10;;;;;;;;;;5015601;28;20065;-77
2023/10/02 12:05:14;;;;;;;7.13;4.15;;;;;;;;;;5014930;28;20050;-77
2023/10/02 12:07:42;;;;;;;8.68;4.18;;;;;;;;;;5016588;28;20061;-78
2023/10/02 12:10:08;;;;;;;6.28;3.47;;;;;;;;;;5014965;28;20058;-77
2023/10/02 12:12:35;;;;;;;6.13;4.10;;;;;;;;;;5014952;28;20054;-77
2023/10/02 12:15:04;;;;;;;6.72;3.83;;;;;;;;;;5014803;28;20050;-77
2023/10/02 12:17:31;;;;;;;6.30;3.53;;;;;;;;;;5014153;28;20074;-77
2023/10/02 12:19:58;;;;;;;6.05;3.50;;;;;;;;;;5014685;28;20058;-77
2023/10/02 12:22:26;;;;;;;7.90;4.35;;;;;;;;;;5014948;28;20069;-77
2023/10/02 12:24:52;;;;;;;7.47;3.95;;;;;;;;;;5014663;28;20050;-77
2023/10/02 12:27:20;;;;;;;5.43;3.65;;;;;;;;;;5027429;28;20056;-79
2023/10/02 12:29:47;;;;;;;7.55;3.80;;;;;;;;;;5024604;28;20057;-79
2023/10/02 12:32:16;;;;;;;8.63;4.10;;;;;;;;;;5029397;28;20482;-80
2023/10/02 12:34:43;;;;;;;8.43;3.78;;;;;;;;;;5016432;28;20064;-81
2023/10/02 12:37:11;;;;;;;7.32;4.40;;;;;;;;;;5030397;28;20049;-77
2023/10/02 12:39:38;;;;;;;7.28;4.07;;;;;;;;;;5027304;28;20055;-76
2023/10/02 12:42:05;;;;;;;6.45;3.67;;;;;;;;;;5022207;28;20054;-77
2023/10/02 12:44:36;;;;;;;5.80;3.47;;;;;;;;;;5015176;28;20058;-76
2023/10/02 12:47:04;;;;;;;8.40;4.30;;;;;;;;;;5015444;28;20053;-76
2023/10/02 12:49:34;;;;;;;6.00;3.47;;;;;;;;;;5014541;28;20049;-76
2023/10/02 12:52:01;;;;;;;6.50;3.25;;;;;;;;;;5014533;28;20467;-76
2023/10/02 12:54:28;;;;;;;8.18;4.72;;;;;;;;;;5014252;28;20061;-76
2023/10/02 12:56:55;;;;;;;5.90;3.78;;;;;;;;;;5014247;28;20049;-76
2023/10/02 12:59:23;;;;;;;6.80;3.47;;;;;;;;;;5014417;28;20046;-77
2023/10/02 13:01:50;;;;;;;5.47;3.05;;;;;;;;;;5022487;28;20478;-76
2023/10/02 13:04:17;;;;;;;6.45;3.35;;;;;;;;;;5025467;28;20414;-76
2023/10/02 13:06:46;;;;;;;6.25;3.08;;;;;;;;;;5014225;28;20080;-76
2023/10/02 13:09:15;;;;;;;5.57;3.00;;;;;;;;;;5024781;28;20053;-76
2023/10/02 13:11:44;;;;;;;5.22;3.13;;;;;;;;;;5028530;28;20064;-76
2023/10/02 13:14:12;;;;;;;5.43;3.72;;;;;;;;;;5017513;28;20049;-77
2023/10/02 13:16:41;;;;;;;6.57;3.58;;;;;;;;;;5020445;28;20054;-77
2023/10/02 13:19:09;;;;;;;6.57;3.53;;;;;;;;;;5017060;28;20060;-77
2023/10/02 13:21:36;;;;;;;5.68;3.53;;;;;;;;;;5029142;28;20045;-76
2023/10/02 13:24:06;;;;;;;6.10;3.67;;;;;;;;;;5015392;28;20057;-76
2023/10/02 13:26:32;;;;;;;6.78;3.30;;;;;;;;;;5014398;28;20488;-75
2023/10/02 13:28:59;;;;;;;6.97;3.70;;;;;;;;;;5026886;28;20054;-74
2023/10/02 13:31:26;;;;;;;5.35;3.35;;;;;;;;;;5018098;28;20057;-75
2023/10/02 13:33:54;;;;;;;7.22;3.13;;;;;;;;;;5013137;28;20045;-75
2023/10/02 13:36:23;;;;;;;5.90;3.28;;;;;;;;;;5018684;28;20048;-76
2023/10/02 13:38:50;;;;;;;5.00;2.95;;;;;;;;;;5031261;28;20049;-78
2023/10/02 13:41:18;;;;;;;6.25;3.40;;;;;;;;;;5013075;28;20053;-80
2023/10/02 13:43:47;;;;;;;5.15;3.08;;;;;;;;;;5023145;28;20057;-78
2023/10/02 13:46:15;;;;;;;7.20;3.20;;;;;;;;;;5026905;28;20042;-77
2023/10/02 13:48:42;;;;;;;4.80;2.80;;;;;;;;;;5013724;28;20057;-82
2023/10/02 13:51:09;;;;;;;5.00;2.33;;;;;;;;;;5028376;28;20065;-82
2023/10/02 13:56:41;;;;;;;7.30;3.47;;;;;;;;;;5013489;28;20042;-83
2023/10/02 14:02:11;;;;;;;6.55;3.22;;;;;;;;;;4942018;28;20435;-79
2023/10/02 14:04:38;;;;;;;7.90;3.35;;;;;;;;;;5020514;28;20060;-80
2023/10/02 14:07:06;;;;;;;7.05;3.63;;;;;;;;;;5013277;28;20057;-81
2023/10/02 14:12:43;;;;;;;5.50;3.30;;;;;;;;;;4985274;28;20049;-81
2023/10/02 14:15:13;;;;;;;5.03;2.90;;;;;;;;;;5031553;28;20422;-77
2023/10/02 14:17:40;;;;;;;4.55;2.60;;;;;;;;;;5014880;28;20426;-76
2023/10/02 14:29:21;;;;;;;6.70;3.65;;;;;;;;;;4952488;28;20046;-77
2023/10/02 14:31:48;;;;;;;7.45;4.45;;;;;;;;;;5009433;28;20061;-77
2023/10/02 14:34:15;;;;;;;8.27;3.58;;;;;;;;;;5016087;28;20057;-77
2023/10/02 14:36:42;;;;;;;7.00;3.60;;;;;;;;;;5022498;28;20057;-77
2023/10/02 14:39:09;;;;;;;6.07;3.60;;;;;;;;;;5035231;28;20064;-76
2023/10/02 14:41:37;;;;;;;8.23;3.50;;;;;;;;;;5025731;28;20057;-77
2023/10/02 14:44:05;;;;;;;5.97;3.47;;;;;;;;;;5018679;28;20054;-78
2023/10/02 14:46:33;;;;;;;6.07;3.50;;;;;;;;;;5017608;28;20058;-77
2023/10/02 14:49:00;;;;;;;9.20;4.38;;;;;;;;;;5028896;28;20053;-82
2023/10/02 14:51:27;;;;;;;10.25;5.15;;;;;;;;;;5017407;28;20057;-80
2023/10/02 14:56:40;;;;;;;9.80;4.65;;;;;;;;;;5008990;28;20061;-80
2023/10/02 14:59:07;;;;;;;7.30;4.00;;;;;;;;;;5023004;28;20054;-81
2023/10/02 15:01:36;;;;;;;8.70;3.78;;;;;;;;;;5017060;28;20045;-78
2023/10/02 15:07:07;;;;;;;8.50;3.75;;;;;;;;;;5008946;28;20411;-78
2023/10/02 15:09:34;;;;;;;9.48;4.88;;;;;;;;;;5017228;28;20050;-78
2023/10/02 15:12:01;;;;;;;7.13;4.20;;;;;;;;;;5028405;28;20061;-78
2023/10/02 15:14:35;;;;;;;7.22;3.60;;;;;;;;;;5030578;28;20049;-80
2023/10/02 15:17:04;;;;;;;6.57;3.60;;;;;;;;;;5025641;28;20049;-79
2023/10/02 15:19:32;;;;;;;7.38;4.38;;;;;;;;;;5009405;28;20050;-79
2023/10/02 15:21:59;;;;;;;11.15;4.60;;;;;;;;;;5035752;28;20057;-78
2023/10/02 15:24:26;;;;;;;9.65;4.55;;;;;;;;;;5025399;28;20065;-79
2023/10/02 15:26:54;;;;;;;7.28;3.75;;;;;;;;;;5028650;28;20049;-79
2023/10/02 15:29:21;;;;;;;7.95;3.70;;;;;;;;;;5035490;28;20479;-78
2023/10/02 15:31:48;;;;;;;8.90;4.68;;;;;;;;;;5034004;28;20057;-78
2023/10/02 15:34:16;;;;;;;8.45;4.22;;;;;;;;;;5013757;28;20061;-79
2023/10/02 15:36:44;;;;;;;10.23;4.68;;;;;;;;;;5029626;28;20441;-79
2023/10/02 15:39:13;;;;;;;9.38;4.63;;;;;;;;;;5029688;28;20509;-78
2023/10/02 15:41:44;;;;;;;9.77;5.13;;;;;;;;;;5029024;28;20045;-79
2023/10/02 15:44:15;;;;;;;9.98;4.32;;;;;;;;;;5027440;28;20050;-78
2023/10/02 15:46:44;;;;;;;9.05;4.43;;;;;;;;;;5026603;28;20056;-78
2023/10/02 15:49:19;;;;;;;6.78;4.10;;;;;;;;;;5027213;28;20425;-78